Relevés horaires St-Hubert (Belgique)


Relevés horaires à St-Hubert - Jeudi 17 Juin 2021
Heure UTC1 Température [°C] Vent [km/h] Hum. [%] Pres.4 [hPa] Visi. [Km] Nébu. [octa] Préc.5 [mm] Cond.
2m. Res. Ros. Dir.2 Vit. Moy. Raf.3
23:00 20.8 20.8 15.9 NE 7.4 9.3 11.1 74 1012.8(0.2/3h) 45 0/8 -- --
22:00 21.2 21.2 15.5 NE 5.6 7.4 9.3 70 1013.4(0.8/3h) 45 2/8 -- --
21:00 22.1 22.1 15.6 NE 5.6 5.6 7.4 67 1012.7(0.5/3h) 45 5/8 -- --
20:00 21.8 21.8 17.4 NNE 3.7 3.7 5.6 76 1012.4(0.6/3h) 40 0/8 -- --
19:00 25.0 25.0 15.8 NNO 1.9 1.9 3.7 57 1011.7(0.3/3h) 35 0/8 -- --
18:00 25.6 25.6 16.4 S 1.9 7.4 14.8 57 1011.4(-0.1/3h) 40 0/8 0/12h
--
17:00 26.4 26.4 16.1 NNO 3.7 5.6 9.3 53 1010.8(-0.2/3h) 30 0/8 -- --
16:00 26.1 26.1 16.0 S 5.6 5.6 11.1 54 1011.1(0.1/3h) 30 0/8 -- --
15:00 26.5 26.5 15.3 SSO 5.6 7.4 14.8 50 1011.2(0.1/3h) 35 0/8 -- --
14:00 26.2 26.2 15.9 S 5.6 7.4 13.0 53 1011.1(0.3/3h) 35 0/8 -- --
13:00 26.3 26.3 16.4 SSO 5.6 7.4 14.8 55 1011(0.3/3h) 30 1/8 -- --
12:00 25.7 25.7 15.6 SO 7.4 9.3 16.7 54 1011.2(0.9/3h) 29 0/8 0/6h
--
11:00 25.4 25.4 14.8 SO 7.4 9.3 16.7 52 1011(1.0/3h) 30 0/8 -- --
10:00 25.6 25.6 13.7 SO 9.3 9.3 14.8 48 1010.8(0.6/3h) 30 0/8 -- --
09:00 24.9 24.9 15.5 S 5.6 9.3 16.7 56 1010.5(0.2/3h) 30 0/8 -- --
08:00 24.3 24.3 15.7 NNO 1.9 3.7 9.3 59 1010.2(0.4/3h) 40 0/8 -- --
07:00 22.0 22.0 14.4 OSO 3.7 9.3 16.7 62 1010.9(0.9/3h) 40 0/8 -- --
06:00 21.1 21.1 12.9 S 5.6 9.3 20.4 59 1011.1(0.8/3h) 40 0/8 0/12h
--
05:00 20.2 20.2 11.9 SSE 5.6 5.6 13.0 59 1010.7(-0.3/3h) 40 0/8 -- --
04:00 19.9 19.9 12.0 SSE 5.6 9.3 13.0 60 1010.5(0.2/3h) 45 0/8 -- --
03:00 20.1 20.1 11.6 SE 9.3 9.3 14.8 58 1010.5(-0.5/3h) 45 0/8 -- --
02:00 20.5 20.5 12.2 SE 7.4 7.4 13.0 59 1011(-0.5/3h) 45 0/8 -- --
01:00 21.5 21.5 12.1 SE 7.4 9.3 13.0 55 1010.3(-1.5/3h) 45 0/8 -- --
00:00 21.7 21.7 12.4 SE 7.4 7.4 11.1 55 1010.6(-1.3/3h) 45 0/8 0/6h
0/24h
--

1 Coordinated Universal Time. Actuellement il est 21:00 locale et 20:00 UTC.

2 Le vent souffle depuis la direction indiquée vers la direction oposée.

3 Les rafales max. sont disponible 40 min après l'heure du relevé.

4 Pour les stations d'altitude (plus de 600m) le géopotentiel du niveau le plus proche de la pression obligatoire est indiqué.

5 Les stations disposant d'un diffuseur peuvent indiquer "trace". Cela signifie que des précipitations ont touchés le sol mais que la quantité est inférieure à 0.1 mm.

Récapitulatif de la journée
Température [°C] Vent [km/h] Ensoleillement4 [h] Precipitations totale5 [mm] Pression [Hpa]
Min1 Max.2 Moy.3 Max. Min Max.
19.6 27.1 7.4 20.4 0 h 0 min 0 1010.2 1013.4

1 Température minimale relevée entre 18:00 UTC la veille et 18:00 UTC le jour donné.

2 Température maximale relevée entre 06:00 UTC le jour donné et 06:00 UTC le lendemain.

3 Vent moyen de la journée basé sur les relevés horaires.

4 Ensoleillement en heures relevé entre 06:00 UTC la veille et 06:00 UTC le jour donné.

5 Précipitations totales tombées entre 06:00 UTC la jour donné et 06:00 UTC le lendemain.

Graphiques horaires